Thunder radar more information blitzortung!


Radar de pluja more information rain snow radar


Visita la nostra xarxa de llocs de meteo:

Template documentation
and downloads

And another site



Wind From: 11-12-2017 11:00 Until: 14:59 warning for: Wind Level: Yellow info button

Pagina Historial Weather Underground text

Diari Resum Agost 25, 2017 Unitats:  Imperial    Mètric   Tant
« Previous Dia
SegĂźent Dia »
Diari Setmana Mensual Anual Personalitzada
  Maxima: Minima: Media:
Temperatura: 92.5 °F 65.8 °F 80.4 °F
Punt de rosada: 64.8 °F 57.7 °F 61.7 °F
Humitat: 80 % 34 % 55 %
Wind Speed: 15 mph 0 mph 4.4 mph
RĂ fegues de vent: 15 mph - -
Vent:- - SE
Pression baro: 30 in 29.9 in -
Precipitacions: 0 in    
Historical Graphs
 
 
Dades de taula per Agost 25, 2017
Temps Temperatura Punt de rosada Pression baro Vent Wind Speed RĂ fegues de vent Humitat Rainfall Rate (Hourly)
00:00 68.9 °F 61 °F 30 in Calm     76 % 0 in
00:03 73.4 °F 59.5 °F 30 in Calm     62 % 0 in
00:08 73.4 °F 60.4 °F 30 in Calm     64 % 0 in
00:10 68.5 °F 60.6 °F 30 in Calm   1 mph 76 % 0 in
00:20 68.2 °F 60.6 °F 30 in Calm   1 mph 77 % 0 in
00:30 68 °F 60.4 °F 30 in Calm     77 % 0 in
00:40 67.5 °F 60.1 °F 30 in Calm   1 mph 77 % 0 in
00:50 67.3 °F 59.7 °F 30 in Calm     77 % 0 in
01:00 67.3 °F 59.7 °F 30 in Calm     77 % 0 in
01:10 67.3 °F 59.7 °F 30 in Calm     77 % 0 in
01:20 67.3 °F 59.7 °F 30 in Calm     77 % 0 in
01:30 67.3 °F 59.7 °F 30 in Calm   1 mph 77 % 0 in
01:40 67.1 °F 59.5 °F 30 in Calm     77 % 0 in
01:50 67.1 °F 59.5 °F 30 in Calm     77 % 0 in
02:00 66.9 °F 59.5 °F 30 in Calm     77 % 0 in
02:10 66.7 °F 59.4 °F 30 in Calm     77 % 0 in
02:20 66.6 °F 59.5 °F 30 in Calm     78 % 0 in
02:30 66.6 °F 59.5 °F 30 in Calm   1 mph 78 % 0 in
02:40 66.4 °F 59.4 °F 30 in Calm   1 mph 78 % 0 in
02:50 66.2 °F 59.2 °F 30 in Calm     78 % 0 in
03:00 66.2 °F 59.5 °F 30 in Calm   1 mph 79 % 0 in
03:10 66.2 °F 59.5 °F 30 in Calm   1 mph 79 % 0 in
03:20 66 °F 59.4 °F 30 in Calm     79 % 0 in
03:30 65.8 °F 59.5 °F 30 in Calm     80 % 0 in
03:40 65.8 °F 59.5 °F 30 in Calm     80 % 0 in
03:50 66.2 °F 59.5 °F 30 in Calm   1 mph 79 % 0 in
04:00 66.7 °F 60.1 °F 30 in Calm     79 % 0 in
04:10 66.7 °F 59.7 °F 30 in Calm     78 % 0 in
04:20 66.7 °F 59.4 °F 30 in WNW 1 mph 1 mph 77 % 0 in
04:30 67.3 °F 60.3 °F 30 in WSW 1 mph 2 mph 78 % 0 in
04:40 67.3 °F 59.7 °F 30 in SW 1 mph 2 mph 77 % 0 in
05:00 69.8 °F 61.9 °F 30 in Calm   2 mph 76 % 0 in
05:10 71.6 °F 61.7 °F 30 in SSE 1 mph 3 mph 71 % 0 in
05:20 71.6 °F 61 °F 30 in ESE 2 mph 2 mph 69 % 0 in
05:30 72.9 °F 61.3 °F 30 in SE 1 mph 2 mph 67 % 0 in
05:40 74.7 °F 61.7 °F 30 in Calm   1 mph 64 % 0 in
10:44 79.5 °F 59.2 °F 30 in ENE 4.6 mph 4.6 mph 50 % 0 in
10:49 79.7 °F 58.8 °F 30 in ENE 4.6 mph 4.6 mph 49 % 0 in
10:54 79.5 °F 59.2 °F 30 in ENE 2.3 mph 2.3 mph 50 % 0 in
10:59 79.7 °F 59.4 °F 30 in NNW 4.6 mph 4.6 mph 50 % 0 in
11:04 80.6 °F 59.2 °F 30 in SE 3.5 mph 3.5 mph 48 % 0 in
11:09 80.8 °F 58.6 °F 30 in ESE 4.6 mph 4.6 mph 47 % 0 in
11:14 80.6 °F 59.2 °F 30 in NE 4.6 mph 4.6 mph 48 % 0 in
11:19 81.1 °F 59.5 °F 30 in NNE 4.6 mph 4.6 mph 48 % 0 in
11:24 81.7 °F 60.1 °F 30 in NNE 4.6 mph 4.6 mph 48 % 0 in
11:29 82.8 °F 61.2 °F 30 in ENE 3.5 mph 3.5 mph 48 % 0 in
11:34 82.6 °F 60.3 °F 30 in ESE 5.8 mph 5.8 mph 47 % 0 in
11:39 82 °F 59.7 °F 30 in ENE 4.6 mph 4.6 mph 47 % 0 in
11:44 82.6 °F 61 °F 30 in ESE 3.8 mph 3.8 mph 48 % 0 in
11:49 83.8 °F 62.1 °F 30 in North 1.4 mph   48 % 0 in
11:54 84 °F 62.2 °F 30 in WNW 2.4 mph 2.4 mph 48 % 0 in
11:55 84 °F 62.2 °F 30 in WNW 2.4 mph 2.4 mph 48 % 0 in
12:00 84.6 °F 62.1 °F 30 in WSW 3.8 mph 3.8 mph 47 % 0 in
12:05 85.1 °F 62.1 °F 30 in ESE 2.3 mph 2.3 mph 46 % 0 in
12:10 86 °F 62.2 °F 30 in North 2.3 mph 2.3 mph 45 % 0 in
12:15 85.8 °F 62.6 °F 30 in East 3.5 mph 3.5 mph 46 % 0 in
12:20 85.6 °F 61.9 °F 30 in North 5.8 mph 5.8 mph 45 % 0 in
12:25 85.8 °F 62.6 °F 30 in SSW 2.2 mph 2.2 mph 46 % 0 in
12:30 86.5 °F 62.1 °F 30 in ESE 6.9 mph 6.9 mph 44 % 0 in
12:35 86.9 °F 62.4 °F 30 in SSE 2.9 mph   44 % 0 in
12:40 87.1 °F 62.4 °F 30 in ENE 4.6 mph 4.6 mph 44 % 0 in
12:42 86.4 °F 61.9 °F 30 in East 4.6 mph 4.6 mph 44 % 0 in
12:47 86.5 °F 61.3 °F 30 in East 6.9 mph 6.9 mph 43 % 0 in
12:52 87.1 °F 61.9 °F 30 in South 4.6 mph 4.6 mph 43 % 0 in
12:57 87.4 °F 62.2 °F 30 in NE 2.3 mph 2.3 mph 43 % 0 in
13:02 87.6 °F 62.4 °F 30 in NE 3.5 mph 3.5 mph 43 % 0 in
13:03 87.3 °F 61.3 °F 30 in ENE 4.7 mph 4.7 mph 42 % 0 in
13:08 87.3 °F 60.6 °F 30 in SW 5.8 mph 5.8 mph 41 % 0 in
13:13 87.1 °F 61.9 °F 30 in South 5.8 mph 5.8 mph 43 % 0 in
13:18 88 °F 62.1 °F 30 in East 8.1 mph 8.1 mph 42 % 0 in
13:23 88 °F 62.8 °F 30 in ENE 9.2 mph 9.2 mph 43 % 0 in
13:28 88 °F 62.8 °F 30 in ESE 8.1 mph 8.1 mph 43 % 0 in
13:33 88.2 °F 62.8 °F 30 in East 9.2 mph 9.2 mph 43 % 0 in
13:38 88.3 °F 63 °F 30 in ESE 10.9 mph 10.9 mph 43 % 0 in
13:43 88 °F 62.8 °F 30 in East 10.4 mph 10.4 mph 43 % 0 in
13:48 88.5 °F 62.4 °F 30 in SSE 6.9 mph 6.9 mph 42 % 0 in
13:53 88.3 °F 63 °F 30 in SSE 6.9 mph 6.9 mph 43 % 0 in
13:58 88.7 °F 62.8 °F 30 in East 10.4 mph 10.4 mph 42 % 0 in
14:03 88.7 °F 62.8 °F 30 in ESE 9.2 mph 9.2 mph 42 % 0 in
14:08 88.5 °F 62.4 °F 30 in NNE 8.1 mph 8.1 mph 42 % 0 in
14:13 88.3 °F 62.2 °F 30 in SSE 8.1 mph 8.1 mph 42 % 0 in
14:15 88.3 °F 62.2 °F 30 in ESE 10.4 mph 10.4 mph 42 % 0 in
14:20 88.2 °F 62.2 °F 30 in NNE 11.5 mph 11.5 mph 42 % 0 in
14:25 88 °F 62.8 °F 30 in ESE 8.7 mph 8.7 mph 43 % 0 in
14:30 88 °F 62.8 °F 30 in East 5.9 mph 6.2 mph 43 % 0 in
14:35 88 °F 62.8 °F 30 in ENE 8.1 mph 8.1 mph 43 % 0 in
14:36 88 °F 62.8 °F 30 in NNE 8.1 mph 8.1 mph 43 % 0 in
14:41 87.3 °F 62.8 °F 30 in East 10.4 mph 10.4 mph 44 % 0 in
14:46 87.1 °F 62.4 °F 30 in ENE 8.1 mph 8.1 mph 44 % 0 in
14:51 87.3 °F 62.8 °F 30 in ESE 10.4 mph 10.4 mph 44 % 0 in
14:56 86.7 °F 62.2 °F 30 in East 8.1 mph 8.1 mph 44 % 0 in
15:01 87.1 °F 62.4 °F 30 in ESE 11.5 mph 11.5 mph 44 % 0 in
15:06 86.9 °F 62.4 °F 30 in ESE 11.5 mph 11.5 mph 44 % 0 in
15:11 87.3 °F 63.3 °F 30 in East 9.4 mph 9.4 mph 45 % 0 in
15:16 87.4 °F 63.5 °F 30 in ENE 9.2 mph 9.2 mph 45 % 0 in
15:21 86.7 °F 62.8 °F 30 in East 15 mph 15 mph 45 % 0 in
15:26 87.1 °F 63.1 °F 30 in ESE 15 mph 15 mph 45 % 0 in
15:31 87.4 °F 63.5 °F 30 in SSE 9.2 mph 9.2 mph 45 % 0 in
15:36 87.6 °F 63.7 °F 30 in ENE 8.1 mph 8.1 mph 45 % 0 in
15:41 87.8 °F 63.1 °F 30 in South 6.9 mph 6.9 mph 44 % 0 in
15:46 87.8 °F 63.1 °F 30 in SSE 9.2 mph 9.2 mph 44 % 0 in
15:51 88.9 °F 64 °F 30 in SE 6.9 mph 6.9 mph 44 % 0 in
15:56 88.9 °F 64 °F 30 in ESE 4.6 mph 4.6 mph 44 % 0 in
16:01 88.7 °F 63.3 °F 30 in East 7.4 mph 7.4 mph 43 % 0 in
16:06 88.7 °F 64 °F 30 in East 4.6 mph 4.6 mph 44 % 0 in
16:11 89.6 °F 64 °F 30 in SSE 10.4 mph 10.4 mph 43 % 0 in
16:16 90.5 °F 63.7 °F 30 in SW 8.1 mph 8.1 mph 41 % 0 in
16:21 90.5 °F 63 °F 30 in SSE 3.5 mph 3.5 mph 40 % 0 in
16:26 90.5 °F 63.7 °F 30 in South 5.8 mph 5.8 mph 41 % 0 in
16:31 90.7 °F 63 °F 30 in NNW 4.6 mph 4.6 mph 40 % 0 in
16:36 92.1 °F 63.7 °F 30 in SE 3.5 mph 3.5 mph 39 % 0 in
16:41 92.5 °F 63.1 °F 30 in SSW 6.9 mph 6.9 mph 38 % 0 in
16:46 92.5 °F 63.1 °F 30 in West 6.4 mph 6.4 mph 38 % 0 in
16:51 92.3 °F 62.2 °F 30 in South 2.9 mph 2.9 mph 37 % 0 in
16:56 92.1 °F 62.1 °F 30 in South 3.6 mph 3.6 mph 37 % 0 in
17:01 92.5 °F 62.4 °F 30 in NE 5.8 mph 5.8 mph 37 % 0 in
17:06 91.9 °F 61.2 °F 30 in West 6 mph 6 mph 36 % 0 in
17:11 91.8 °F 61 °F 30 in SW 6.9 mph 6.9 mph 36 % 0 in
17:16 91 °F 59.5 °F 30 in SW 5.8 mph 5.8 mph 35 % 0 in
17:21 91 °F 59.5 °F 30 in SSW 5.8 mph 5.8 mph 35 % 0 in
17:26 90.3 °F 58.1 °F 30 in SSW 6.9 mph 6.9 mph 34 % 0 in
17:31 90.1 °F 57.9 °F 30 in SSW 5.8 mph 5.8 mph 34 % 0 in
17:36 90 °F 58.6 °F 30 in SW 4.6 mph 4.6 mph 35 % 0 in
17:41 89.8 °F 58.5 °F 30 in SW 9.2 mph 9.2 mph 35 % 0 in
17:46 90 °F 58.6 °F 30 in WSW 5.8 mph 5.8 mph 35 % 0 in
17:51 90 °F 58.6 °F 30 in SSW 4.6 mph 4.6 mph 35 % 0 in
17:52 89.8 °F 58.5 °F 30 in West 3.5 mph 3.5 mph 35 % 0 in
17:57 89.2 °F 57.9 °F 30 in SW 5.8 mph 5.8 mph 35 % 0 in
18:02 89.4 °F 59 °F 30 in SW 3.3 mph 3.3 mph 36 % 0 in
18:07 89.1 °F 57.7 °F 30 in WSW 5.8 mph 5.8 mph 35 % 0 in
18:12 89.6 °F 58.3 °F 30 in SW 3.5 mph 3.5 mph 35 % 0 in
18:17 88.2 °F 57.7 °F 30 in SE 5.8 mph 5.8 mph 36 % 0 in
18:18 88.2 °F 57.7 °F 30 in SW 5.8 mph 5.8 mph 36 % 0 in
18:23 87.1 °F 59.7 °F 30 in ENE 6.4 mph 6.4 mph 40 % 0 in
18:28 86.2 °F 59.7 °F 30 in ENE 7.6 mph 7.6 mph 41 % 0 in
18:33 85.5 °F 59.7 °F 30 in ESE 8.1 mph 8.1 mph 42 % 0 in
18:38 85.5 °F 60.4 °F 30 in SE 9.2 mph 9.2 mph 43 % 0 in
18:43 85.3 °F 61 °F 29.9 in NNE 9.2 mph 9.2 mph 44 % 0 in
18:48 84.6 °F 60.3 °F 29.9 in ENE 9.2 mph 9.2 mph 44 % 0 in
18:53 84 °F 61 °F 29.9 in ENE 10.4 mph 10.4 mph 46 % 0 in
18:58 83.7 °F 61.3 °F 29.9 in East 11.5 mph 11.5 mph 47 % 0 in
19:03 83.5 °F 61.2 °F 29.9 in ENE 7.4 mph 7.4 mph 47 % 0 in
19:08 83.1 °F 61.3 °F 29.9 in South 10.4 mph 10.4 mph 48 % 0 in
19:13 82.9 °F 60.6 °F 29.9 in ESE 13.8 mph 13.8 mph 47 % 0 in
19:18 82.8 °F 61.2 °F 29.9 in ESE 8.1 mph 8.1 mph 48 % 0 in
19:23 82.6 °F 61 °F 29.9 in SE 5.8 mph 5.8 mph 48 % 0 in
19:28 82.8 °F 61.5 °F 29.9 in ESE 3.5 mph 3.5 mph 49 % 0 in
19:33 82.2 °F 61.2 °F 29.9 in SSE 3.5 mph 3.5 mph 49 % 0 in
19:38 81.9 °F 61.3 °F 29.9 in SE 6.9 mph 6.9 mph 50 % 0 in
19:43 81.5 °F 61.2 °F 30 in SSE 5.8 mph 5.8 mph 50 % 0 in
19:48 81.1 °F 61.3 °F 30 in SE 5.8 mph 5.8 mph 51 % 0 in
19:53 81 °F 61.2 °F 30 in East 3.5 mph 3.6 mph 51 % 0 in
19:58 80.6 °F 61.3 °F 30 in SE 4.6 mph 4.6 mph 52 % 0 in
20:03 80.4 °F 61.7 °F 30 in ESE 5.8 mph 5.8 mph 53 % 0 in
20:08 80.1 °F 61.3 °F 30 in ENE 5.8 mph 5.8 mph 53 % 0 in
20:13 79.7 °F 61.5 °F 30 in East 3.5 mph 3.5 mph 54 % 0 in
20:18 79.3 °F 61.9 °F 30 in East 4.6 mph 4.6 mph 55 % 0 in
20:23 79.2 °F 61.5 °F 30 in ENE 6.9 mph 6.9 mph 55 % 0 in
20:28 79.2 °F 61.5 °F 30 in ESE 5.9 mph 5.9 mph 55 % 0 in
20:30 73.8 °F 64.6 °F 30 in NNE 1 mph 2 mph 73 % 0 in
20:33 78.8 °F 61.3 °F 30 in East 4.6 mph 4.6 mph 55 % 0 in
20:38 78.6 °F 61.5 °F 30 in East 5.8 mph 5.8 mph 56 % 0 in
20:40 73.6 °F 64.4 °F 30 in Calm   2 mph 73 % 0 in
20:43 78.3 °F 61.3 °F 30 in SE 4.6 mph 4.6 mph 56 % 0 in
20:48 78.1 °F 61.5 °F 30 in East 4.3 mph 4.3 mph 57 % 0 in
20:50 73 °F 64.2 °F 30 in East 1 mph 3 mph 74 % 0 in
20:53 77.9 °F 61.9 °F 30 in NE 6.9 mph 6.9 mph 58 % 0 in
20:58 77.5 °F 61.5 °F 30 in ENE 5.8 mph 5.8 mph 58 % 0 in
21:00 72.9 °F 63.7 °F 30 in East 2 mph 3 mph 73 % 0 in
21:03 77.4 °F 61.9 °F 30 in East 3.1 mph 3.1 mph 59 % 0 in
21:08 77.2 °F 61.7 °F 30 in NE 2.3 mph 2.3 mph 59 % 0 in
21:10 72.9 °F 64 °F 30 in NE 1 mph 2 mph 74 % 0 in
21:13 77 °F 62.1 °F 30 in East 3.5 mph 3.5 mph 60 % 0 in
21:18 77 °F 62.4 °F 30 in NE 6.9 mph 6.9 mph 61 % 0 in
21:20 72.9 °F 64 °F 30 in NNE 2 mph 2 mph 74 % 0 in
21:23 76.6 °F 62.6 °F 30 in ESE 3.5 mph 3.5 mph 62 % 0 in
21:28 76.6 °F 63.1 °F 30 in East 5.8 mph 5.8 mph 63 % 0 in
21:30 72.9 °F 64 °F 30 in NE 1 mph 3 mph 74 % 0 in
21:33 76.5 °F 63.3 °F 30 in ESE 3.5 mph 3.5 mph 64 % 0 in
21:38 76.5 °F 63.3 °F 30 in ESE 3.5 mph 3.5 mph 64 % 0 in
21:40 72.9 °F 64 °F 30 in NE 2 mph 3 mph 74 % 0 in
21:43 76.5 °F 63.3 °F 30 in NE 1.6 mph 1.6 mph 64 % 0 in
21:48 76.3 °F 63.1 °F 30 in ENE 2.3 mph 2.3 mph 64 % 0 in
21:50 72.7 °F 64.2 °F 30 in NNE 1 mph 2 mph 75 % 0 in
21:53 76.3 °F 63.7 °F 30 in NNE 2.3 mph 2.3 mph 65 % 0 in
21:58 76.3 °F 63.1 °F 30 in NE 2.4 mph 2.4 mph 64 % 0 in
22:00 72.5 °F 64 °F 30 in Calm   1 mph 75 % 0 in
22:03 76.1 °F 63.5 °F 30 in NE 2.3 mph 2.3 mph 65 % 0 in
22:08 76.1 °F 63.5 °F 30 in NE 3.5 mph 3.5 mph 65 % 0 in
22:09 76.1 °F 63.5 °F 30 in ENE 2.6 mph 2.6 mph 65 % 0 in
22:10 72.1 °F 63.9 °F 30 in NE 2 mph 4 mph 75 % 0 in
22:14 76.1 °F 63.5 °F 30 in NE 3.3 mph 3.3 mph 65 % 0 in
22:19 75.9 °F 63.7 °F 30 in East 2.3 mph 2.3 mph 66 % 0 in
22:20 72 °F 64 °F 30 in Calm   2 mph 76 % 0 in
22:24 75.9 °F 63.7 °F 30 in ENE 2.3 mph 2.3 mph 66 % 0 in
22:29 75.9 °F 64.2 °F 30 in ENE 2.6 mph 2.6 mph 67 % 0 in
22:30 72.3 °F 64.2 °F 30 in North 2 mph 3 mph 76 % 0 in
22:34 75.7 °F 64.4 °F 30 in ENE 3.5 mph 3.5 mph 68 % 0 in
22:39 75.7 °F 64 °F 30 in ENE 2.3 mph 2.3 mph 67 % 0 in
22:40 72.3 °F 64.8 °F 30 in NNW 1 mph 2 mph 77 % 0 in
22:44 75.7 °F 64.4 °F 30 in East 2.3 mph 2.3 mph 68 % 0 in
22:49 75.6 °F 64.8 °F 30 in ESE 2.4 mph 2.4 mph 69 % 0 in
22:50 72.3 °F 64.8 °F 30 in NNW 1 mph 2 mph 77 % 0 in
22:54 75.6 °F 64.2 °F 30 in ESE 2.3 mph 2.3 mph 68 % 0 in
23:00 75.2 °F 64.2 °F 30 in ESE 3.5 mph 3.5 mph 69 % 0 in
23:05 75 °F 64.2 °F 30 in SE 2.4 mph 2.4 mph 69 % 0 in
23:10 74.8 °F 64 °F 30 in ESE 3.8 mph 3.8 mph 69 % 0 in
23:15 74.7 °F 63.3 °F 30 in SSE 2.3 mph 2.3 mph 68 % 0 in
23:20 74.5 °F 63.1 °F 30 in South 2.3 mph 2.3 mph 68 % 0 in
23:25 74.5 °F 62.8 °F 30 in SW 1.4 mph 1.4 mph 67 % 0 in
23:30 74.3 °F 63.1 °F 30 in SW 2.3 mph 2.3 mph 68 % 0 in
23:35 73.9 °F 62.8 °F 30 in West 1.4 mph 1.4 mph 68 % 0 in
23:40 73.8 °F 62.4 °F 30 in SW 3.3 mph 3.3 mph 68 % 0 in
23:45 73.6 °F 62.4 °F 30 in WSW 2.3 mph 2.3 mph 68 % 0 in
23:50 73.8 °F 62.4 °F 30 in WSW 2.3 mph 2.3 mph 68 % 0 in
23:55 73.8 °F 63 °F 30 in West 2.9 mph 2.9 mph 69 % 0 in
Meteo Sesrovires
Elogis d' Weather Underground - 3.75 mb

Guio original per  Jim McMurry - jmcmurry@mwt.net Adaptat per a la plantilla per  Wim van der Kuil - Leuven-Template.eu

Trobareu la nostra informacio del temps tambe a:

Weather Underground

AWEKAS